Time;durP1;ratioP1;P1;durP2;ratioP2;P2;SDS_P1;SDS_P2;PMS_P1;PMS_P2;Temp;Humidity;BMP_temperature;BMP_pressure;BME280_temperature;BME280_humidity;BME280_pressure;Samples;Min_cycle;Max_cycle;Signal;HPM_P1;HPM_P2
2022/09/01 00:01:28;;;;;;;2.23;2.03;;;;;;;;;;5117954;28;20234;-61
2022/09/01 00:03:58;;;;;;;2.57;1.83;;;;;;;;;;5117447;28;20593;-61
2022/09/01 00:06:26;;;;;;;2.07;1.93;;;;;;;;;;5117517;28;20213;-61
2022/09/01 00:08:56;;;;;;;2.07;1.87;;;;;;;;;;5117821;28;20210;-61
2022/09/01 00:11:26;;;;;;;2.23;2.03;;;;;;;;;;5118630;28;20233;-61
2022/09/01 00:13:55;;;;;;;2.80;2.10;;;;;;;;;;5121276;28;20255;-61
2022/09/01 00:16:23;;;;;;;2.33;1.70;;;;;;;;;;5121136;28;20258;-61
2022/09/01 00:18:53;;;;;;;2.13;1.93;;;;;;;;;;5121338;28;20237;-61
2022/09/01 00:21:23;;;;;;;3.10;2.00;;;;;;;;;;5121156;28;20703;-61
2022/09/01 00:23:51;;;;;;;3.40;2.00;;;;;;;;;;5119512;28;20227;-61
2022/09/01 00:26:20;;;;;;;4.77;1.87;;;;;;;;;;5100506;28;20224;-61
2022/09/01 00:28:49;;;;;;;3.17;1.80;;;;;;;;;;5100268;28;20203;-61
2022/09/01 00:31:18;;;;;;;3.33;2.20;;;;;;;;;;5100608;28;20230;-60
2022/09/01 00:33:47;;;;;;;1.70;1.60;;;;;;;;;;5103935;28;20214;-60
2022/09/01 00:36:15;;;;;;;2.03;1.83;;;;;;;;;;5120792;28;20664;-60
2022/09/01 00:38:43;;;;;;;2.23;1.90;;;;;;;;;;5120976;28;20205;-60
2022/09/01 00:41:12;;;;;;;3.77;2.10;;;;;;;;;;5120903;28;20201;-60
2022/09/01 00:43:44;;;;;;;1.90;1.80;;;;;;;;;;5120358;28;20259;-60
2022/09/01 00:46:20;;;;;;;2.83;1.60;;;;;;;;;;5120928;28;20263;-60
2022/09/01 00:48:52;;;;;;;3.37;2.57;;;;;;;;;;5120692;28;20652;-60
2022/09/01 00:51:21;;;;;;;2.23;2.07;;;;;;;;;;5120516;28;20688;-60
2022/09/01 00:53:49;;;;;;;2.03;1.83;;;;;;;;;;5120330;28;20710;-60
2022/09/01 00:56:18;;;;;;;2.70;2.20;;;;;;;;;;5120251;28;20246;-60
2022/09/01 00:58:47;;;;;;;2.30;2.00;;;;;;;;;;5120193;28;20561;-61
2022/09/01 01:01:15;;;;;;;2.63;1.80;;;;;;;;;;5120607;27;20246;-60
2022/09/01 01:03:44;;;;;;;2.13;2.03;;;;;;;;;;5120544;28;20230;-60
2022/09/01 01:06:15;;;;;;;2.20;2.00;;;;;;;;;;5120279;28;20653;-60
2022/09/01 01:08:48;;;;;;;2.10;2.00;;;;;;;;;;5120609;28;20217;-61
2022/09/01 01:11:16;;;;;;;3.00;1.90;;;;;;;;;;5120332;28;20203;-60
2022/09/01 01:13:50;;;;;;;1.90;1.77;;;;;;;;;;5119885;28;20230;-61
2022/09/01 01:16:18;;;;;;;4.13;2.00;;;;;;;;;;5120064;28;20569;-61
2022/09/01 01:18:47;;;;;;;2.10;1.90;;;;;;;;;;5120422;27;20288;-61
2022/09/01 01:24:09;;;;;;;2.77;1.70;;;;;;;;;;5115929;28;20732;-61
2022/09/01 01:26:38;;;;;;;2.30;1.90;;;;;;;;;;5099698;28;20216;-61
2022/09/01 01:29:08;;;;;;;3.10;2.07;;;;;;;;;;5099204;28;20724;-61
2022/09/01 01:31:36;;;;;;;2.60;1.87;;;;;;;;;;5099824;28;20248;-61
2022/09/01 01:34:06;;;;;;;2.23;1.70;;;;;;;;;;5105654;28;20248;-61
2022/09/01 01:36:36;;;;;;;2.03;1.83;;;;;;;;;;5119650;27;20235;-61
2022/09/01 01:39:06;;;;;;;1.70;1.60;;;;;;;;;;5119765;28;20212;-61
2022/09/01 01:41:35;;;;;;;2.10;1.80;;;;;;;;;;5119456;28;20268;-61
2022/09/01 01:44:05;;;;;;;1.90;1.80;;;;;;;;;;5119230;27;20628;-61
2022/09/01 01:46:34;;;;;;;2.10;1.90;;;;;;;;;;5119759;28;20246;-61
2022/09/01 01:49:03;;;;;;;2.37;1.90;;;;;;;;;;5119798;28;20236;-61
2022/09/01 01:51:31;;;;;;;2.33;2.00;;;;;;;;;;5119370;28;20244;-61
2022/09/01 01:54:00;;;;;;;1.87;1.77;;;;;;;;;;5119189;28;20240;-61
2022/09/01 01:56:28;;;;;;;3.00;1.90;;;;;;;;;;5119221;28;20230;-61
2022/09/01 01:58:57;;;;;;;3.10;1.73;;;;;;;;;;5119191;28;20272;-61
2022/09/01 02:01:27;;;;;;;1.83;1.73;;;;;;;;;;5119868;28;20605;-61
2022/09/01 02:03:56;;;;;;;2.17;2.00;;;;;;;;;;5119161;28;20311;-61
2022/09/01 02:06:27;;;;;;;2.33;1.80;;;;;;;;;;5119411;28;20228;-61
2022/09/01 02:08:57;;;;;;;2.13;1.77;;;;;;;;;;5119396;28;20242;-61
2022/09/01 02:11:26;;;;;;;3.07;1.90;;;;;;;;;;5118886;28;20207;-60
2022/09/01 02:13:56;;;;;;;2.10;1.70;;;;;;;;;;5118758;27;20706;-61
2022/09/01 02:16:25;;;;;;;2.33;1.80;;;;;;;;;;5119319;28;20204;-61
2022/09/01 02:18:55;;;;;;;1.80;1.70;;;;;;;;;;5119003;28;20235;-61
2022/09/01 02:21:25;;;;;;;2.00;1.90;;;;;;;;;;5118950;28;20242;-61
2022/09/01 02:23:58;;;;;;;1.73;1.63;;;;;;;;;;5108808;28;20757;-61
2022/09/01 02:26:30;;;;;;;2.40;1.97;;;;;;;;;;5097290;28;20234;-61
2022/09/01 02:29:00;;;;;;;1.93;1.83;;;;;;;;;;5096950;28;20203;-61
2022/09/01 02:31:28;;;;;;;2.57;1.90;;;;;;;;;;5098158;28;20242;-61
2022/09/01 02:33:58;;;;;;;2.87;1.97;;;;;;;;;;5102202;28;20262;-61
2022/09/01 02:36:26;;;;;;;2.10;1.90;;;;;;;;;;5117894;28;20232;-61
2022/09/01 02:38:54;;;;;;;2.10;1.90;;;;;;;;;;5118193;28;20315;-61
2022/09/01 02:41:27;;;;;;;2.10;2.00;;;;;;;;;;5112012;28;20655;-61
2022/09/01 02:43:56;;;;;;;4.73;1.90;;;;;;;;;;5117880;28;20228;-61
2022/09/01 02:46:24;;;;;;;1.67;1.57;;;;;;;;;;5118540;28;20261;-61
2022/09/01 02:48:52;;;;;;;3.30;2.27;;;;;;;;;;5117888;28;20255;-61
2022/09/01 02:51:27;;;;;;;2.57;2.13;;;;;;;;;;5117893;28;20616;-61
2022/09/01 02:53:55;;;;;;;4.27;2.10;;;;;;;;;;5116800;28;20280;-61
2022/09/01 02:56:26;;;;;;;2.23;2.03;;;;;;;;;;5116558;28;20219;-60
2022/09/01 02:58:54;;;;;;;2.10;1.70;;;;;;;;;;5106769;28;20223;-61
2022/09/01 03:01:24;;;;;;;3.83;1.90;;;;;;;;;;5096291;28;20234;-61
2022/09/01 03:03:53;;;;;;;2.37;1.80;;;;;;;;;;5096321;28;20227;-61
2022/09/01 03:06:22;;;;;;;1.73;1.63;;;;;;;;;;5107019;27;20222;-61
2022/09/01 03:08:53;;;;;;;1.50;1.40;;;;;;;;;;5116940;27;20244;-61
2022/09/01 03:11:23;;;;;;;2.10;1.73;;;;;;;;;;5111183;28;20236;-60
2022/09/01 03:13:52;;;;;;;1.97;1.87;;;;;;;;;;5112382;27;20221;-61
2022/09/01 03:16:21;;;;;;;2.20;1.97;;;;;;;;;;5121871;28;20200;-61
2022/09/01 03:18:50;;;;;;;3.17;2.20;;;;;;;;;;5125417;28;20270;-61
2022/09/01 03:21:18;;;;;;;1.70;1.60;;;;;;;;;;5117232;27;20674;-61
2022/09/01 03:23:47;;;;;;;1.83;1.73;;;;;;;;;;5122889;28;20252;-61
2022/09/01 03:26:18;;;;;;;2.23;2.00;;;;;;;;;;5107007;28;20259;-61
2022/09/01 03:28:46;;;;;;;2.43;2.07;;;;;;;;;;5097301;28;20677;-61
2022/09/01 03:31:14;;;;;;;2.20;2.00;;;;;;;;;;5097514;28;20259;-60
2022/09/01 03:33:42;;;;;;;1.70;1.60;;;;;;;;;;5128572;28;20266;-60
2022/09/01 03:36:17;;;;;;;1.80;1.70;;;;;;;;;;5126955;27;20196;-61
2022/09/01 03:38:47;;;;;;;2.70;1.90;;;;;;;;;;5124976;28;20231;-60
2022/09/01 03:41:16;;;;;;;2.00;1.90;;;;;;;;;;5123274;27;20226;-59
2022/09/01 03:43:46;;;;;;;2.20;2.10;;;;;;;;;;5116250;28;20220;-59
2022/09/01 03:46:18;;;;;;;2.20;2.00;;;;;;;;;;5107745;28;20208;-59
2022/09/01 03:48:49;;;;;;;2.50;1.93;;;;;;;;;;5110620;28;20189;-59
2022/09/01 03:51:17;;;;;;;2.70;1.70;;;;;;;;;;5111593;28;20535;-60
2022/09/01 03:53:46;;;;;;;2.47;2.03;;;;;;;;;;5110872;28;20236;-60
2022/09/01 03:56:15;;;;;;;2.20;2.00;;;;;;;;;;5111717;28;20205;-59
2022/09/01 03:58:45;;;;;;;1.80;1.70;;;;;;;;;;5111020;28;20252;-59
2022/09/01 04:01:15;;;;;;;2.17;1.70;;;;;;;;;;5108489;28;20664;-59
2022/09/01 04:03:47;;;;;;;1.90;1.80;;;;;;;;;;5110267;28;20270;-60
2022/09/01 04:06:20;;;;;;;2.67;2.00;;;;;;;;;;5110363;28;20329;-60
2022/09/01 04:08:48;;;;;;;1.70;1.60;;;;;;;;;;5110881;28;20562;-60
2022/09/01 04:11:17;;;;;;;3.83;2.07;;;;;;;;;;5110177;28;20691;-59
2022/09/01 04:13:47;;;;;;;2.20;2.07;;;;;;;;;;5109532;28;20216;-60
2022/09/01 04:19:14;;;;;;;4.27;2.03;;;;;;;;;;5110017;28;20228;-60
2022/09/01 04:21:43;;;;;;;1.97;1.87;;;;;;;;;;5110218;28;20263;-60
2022/09/01 04:24:13;;;;;;;4.83;2.03;;;;;;;;;;5111659;28;20282;-60
2022/09/01 04:26:41;;;;;;;2.43;2.20;;;;;;;;;;5111395;28;20200;-60
2022/09/01 04:29:11;;;;;;;2.33;2.13;;;;;;;;;;5110359;28;20215;-60
2022/09/01 04:31:41;;;;;;;2.30;2.10;;;;;;;;;;5108379;28;20247;-60
2022/09/01 04:34:12;;;;;;;2.73;1.97;;;;;;;;;;5109778;28;20697;-59
2022/09/01 04:36:42;;;;;;;3.07;1.90;;;;;;;;;;5109903;27;20224;-59
2022/09/01 04:39:11;;;;;;;1.70;1.60;;;;;;;;;;5110083;28;20656;-59
2022/09/01 04:41:41;;;;;;;2.23;2.03;;;;;;;;;;5110906;28;20338;-60
2022/09/01 04:44:09;;;;;;;3.73;2.17;;;;;;;;;;5108237;28;20236;-60
2022/09/01 04:46:41;;;;;;;2.40;2.20;;;;;;;;;;5119576;27;20225;-60
2022/09/01 04:49:10;;;;;;;2.87;2.00;;;;;;;;;;5122720;27;20196;-60
2022/09/01 04:51:40;;;;;;;3.30;2.50;;;;;;;;;;5107502;28;20208;-59
2022/09/01 04:54:10;;;;;;;2.77;2.03;;;;;;;;;;5120640;28;20316;-59
2022/09/01 04:56:39;;;;;;;2.70;2.50;;;;;;;;;;5120448;28;20200;-59
2022/09/01 04:59:09;;;;;;;2.37;2.10;;;;;;;;;;5119233;27;20267;-59
2022/09/01 05:01:42;;;;;;;2.80;2.60;;;;;;;;;;5120477;28;20200;-59
2022/09/01 05:04:13;;;;;;;3.63;2.13;;;;;;;;;;5120439;28;20285;-59
2022/09/01 05:06:41;;;;;;;3.00;2.40;;;;;;;;;;5120600;28;20232;-59
2022/09/01 05:09:10;;;;;;;3.23;2.47;;;;;;;;;;5120175;27;20205;-58
2022/09/01 05:11:38;;;;;;;3.40;2.70;;;;;;;;;;5120134;28;20620;-59
2022/09/01 05:14:06;;;;;;;3.37;2.67;;;;;;;;;;5119748;28;20719;-63
2022/09/01 05:16:36;;;;;;;1193.90;725.73;;;;;;;;;;5120079;28;20201;-61
2022/09/01 05:19:05;;;;;;;205.90;111.90;;;;;;;;;;5120066;28;20227;-61
2022/09/01 05:21:37;;;;;;;10.83;7.33;;;;;;;;;;5120265;28;20237;-62
2022/09/01 05:24:07;;;;;;;470.60;292.93;;;;;;;;;;5118599;28;20217;-60
2022/09/01 05:26:37;;;;;;;21.37;14.40;;;;;;;;;;5105587;28;20198;-61
2022/09/01 05:29:09;;;;;;;9.87;6.50;;;;;;;;;;5108810;28;20189;-60
2022/09/01 05:31:37;;;;;;;5.03;3.70;;;;;;;;;;5107240;28;20280;-60
2022/09/01 05:34:06;;;;;;;6.60;5.33;;;;;;;;;;5119627;28;20229;-60
2022/09/01 05:36:36;;;;;;;7.43;4.83;;;;;;;;;;5108780;27;20212;-60
2022/09/01 05:39:05;;;;;;;3.93;3.07;;;;;;;;;;5109408;28;20227;-61
2022/09/01 05:41:34;;;;;;;4.67;3.37;;;;;;;;;;5108205;28;20205;-60
2022/09/01 05:44:06;;;;;;;4.03;2.97;;;;;;;;;;5105038;28;20233;-60
2022/09/01 05:46:35;;;;;;;4.03;3.30;;;;;;;;;;5105752;27;20593;-61
2022/09/01 05:49:05;;;;;;;2.93;2.60;;;;;;;;;;5109252;28;20205;-61
2022/09/01 05:51:34;;;;;;;4.43;2.60;;;;;;;;;;5123791;27;20210;-60
2022/09/01 05:54:15;;;;;;;3.87;2.60;;;;;;;;;;5124645;27;20224;-61
2022/09/01 05:56:43;;;;;;;3.37;2.90;;;;;;;;;;5120964;27;20197;-61
2022/09/01 05:59:12;;;;;;;4.07;2.57;;;;;;;;;;5120089;27;20228;-61
2022/09/01 06:01:56;;;;;;;4.90;2.47;;;;;;;;;;5117910;27;20205;-61
2022/09/01 06:04:25;;;;;;;2.60;2.40;;;;;;;;;;5105216;28;20224;-61
2022/09/01 06:06:55;;;;;;;3.40;2.60;;;;;;;;;;5110884;28;20208;-61
2022/09/01 06:09:40;;;;;;;7.33;3.17;;;;;;;;;;5116546;28;20189;-61
2022/09/01 06:12:16;;;;;;;2.93;2.63;;;;;;;;;;5115365;28;20670;-61
2022/09/01 06:14:49;;;;;;;2.37;2.10;;;;;;;;;;5118483;27;20220;-62
2022/09/01 06:17:18;;;;;;;2.47;2.27;;;;;;;;;;5115714;28;20205;-62
2022/09/01 06:19:48;;;;;;;3.87;2.10;;;;;;;;;;5118425;28;20220;-61
2022/09/01 06:22:17;;;;;;;4.67;2.43;;;;;;;;;;5118631;27;20196;-62
2022/09/01 06:24:47;;;;;;;2.57;2.30;;;;;;;;;;5117421;28;20563;-61
2022/09/01 06:27:28;;;;;;;2.50;2.30;;;;;;;;;;5107091;28;20201;-61
2022/09/01 06:29:56;;;;;;;4.67;2.37;;;;;;;;;;5106134;28;20567;-61
2022/09/01 06:32:25;;;;;;;3.17;2.67;;;;;;;;;;5117786;28;20230;-61
2022/09/01 06:34:57;;;;;;;4.93;3.10;;;;;;;;;;5104243;28;20221;-61
2022/09/01 06:37:27;;;;;;;3.43;2.90;;;;;;;;;;5115945;28;20230;-61
2022/09/01 06:39:57;;;;;;;3.17;2.67;;;;;;;;;;5118075;28;20233;-62
2022/09/01 06:42:27;;;;;;;2.50;2.30;;;;;;;;;;5113424;28;20200;-61
2022/09/01 06:44:56;;;;;;;3.00;2.60;;;;;;;;;;5117553;28;20311;-61
2022/09/01 06:47:27;;;;;;;2.57;2.37;;;;;;;;;;5117800;28;20208;-61
2022/09/01 06:49:57;;;;;;;3.60;2.77;;;;;;;;;;5117559;28;20572;-61
2022/09/01 06:52:26;;;;;;;3.97;2.67;;;;;;;;;;5117527;28;20264;-61
2022/09/01 06:54:56;;;;;;;3.20;2.90;;;;;;;;;;5116325;28;20225;-61
2022/09/01 06:57:26;;;;;;;2.70;2.43;;;;;;;;;;5117878;28;20603;-61
2022/09/01 07:00:16;;;;;;;3.73;2.83;;;;;;;;;;5114178;28;20247;-61
2022/09/01 07:02:46;;;;;;;2.93;2.73;;;;;;;;;;5116455;28;20713;-61
2022/09/01 07:05:20;;;;;;;5.03;3.23;;;;;;;;;;5115368;28;20228;-62
2022/09/01 07:08:09;;;;;;;4.00;2.87;;;;;;;;;;5109610;28;20637;-62
2022/09/01 07:10:42;;;;;;;3.57;2.50;;;;;;;;;;5115070;28;20209;-61
2022/09/01 07:13:34;;;;;;;4.00;2.47;;;;;;;;;;5120231;27;20285;-63
2022/09/01 07:16:05;;;;;;;4.20;2.37;;;;;;;;;;5121091;27;20202;-62
2022/09/01 07:18:56;;;;;;;2.27;2.07;;;;;;;;;;5107913;28;20236;-62
2022/09/01 07:21:26;;;;;;;2.93;2.70;;;;;;;;;;5120073;28;20224;-63
2022/09/01 07:24:19;;;;;;;2.53;2.33;;;;;;;;;;5119035;27;20296;-61
2022/09/01 07:26:49;;;;;;;3.03;2.70;;;;;;;;;;5115443;28;20577;-61
2022/09/01 07:29:25;;;;;;;3.10;2.73;;;;;;;;;;5121767;27;20614;-62
2022/09/01 07:31:54;;;;;;;5.53;3.30;;;;;;;;;;5121003;28;20204;-61
2022/09/01 07:34:45;;;;;;;4.23;2.40;;;;;;;;;;5122805;28;20246;-61
2022/09/01 07:37:36;;;;;;;4.07;2.97;;;;;;;;;;5121087;27;20691;-61
2022/09/01 07:40:27;;;;;;;3.00;2.70;;;;;;;;;;5114630;28;20250;-61
2022/09/01 07:43:22;;;;;;;2.57;2.13;;;;;;;;;;5119252;28;20230;-60
2022/09/01 07:45:54;;;;;;;2.90;2.30;;;;;;;;;;5122707;27;20211;-61
2022/09/01 07:48:30;;;;;;;2.70;2.50;;;;;;;;;;5121370;27;20208;-61
2022/09/01 07:51:22;;;;;;;2.70;2.40;;;;;;;;;;5114429;27;20255;-62
2022/09/01 07:54:06;;;;;;;2.90;2.70;;;;;;;;;;5123987;27;20228;-61
2022/09/01 07:56:36;;;;;;;3.37;2.43;;;;;;;;;;5121801;27;20292;-61
2022/09/01 07:59:09;;;;;;;2.90;2.60;;;;;;;;;;5113455;27;20232;-61
2022/09/01 08:01:46;;;;;;;2.83;2.63;;;;;;;;;;5124053;27;20234;-64
2022/09/01 08:04:15;;;;;;;4.40;2.80;;;;;;;;;;5121421;27;20227;-62
2022/09/01 08:06:43;;;;;;;2.90;2.60;;;;;;;;;;5124053;28;20219;-63
2022/09/01 08:09:12;;;;;;;3.90;2.80;;;;;;;;;;5123424;28;20247;-62
2022/09/01 08:12:00;;;;;;;3.43;2.80;;;;;;;;;;5123500;27;20686;-62
2022/09/01 08:14:30;;;;;;;7.53;2.60;;;;;;;;;;5112409;27;20222;-62
2022/09/01 08:17:03;;;;;;;3.53;2.50;;;;;;;;;;5127629;27;20301;-61
2022/09/01 08:19:52;;;;;;;7.63;2.80;;;;;;;;;;5132701;27;20290;-61
2022/09/01 08:22:22;;;;;;;4.23;2.90;;;;;;;;;;5128781;27;20223;-62
2022/09/01 08:24:51;;;;;;;2.73;2.37;;;;;;;;;;5122936;27;20223;-61
2022/09/01 08:27:20;;;;;;;2.73;2.33;;;;;;;;;;5111142;27;20207;-61
2022/09/01 08:29:48;;;;;;;5.00;2.80;;;;;;;;;;5123602;27;20227;-61
2022/09/01 08:32:19;;;;;;;2.87;2.57;;;;;;;;;;5119348;27;20205;-61
2022/09/01 08:34:47;;;;;;;2.93;2.43;;;;;;;;;;5111828;28;20621;-61
2022/09/01 08:37:15;;;;;;;5.67;2.97;;;;;;;;;;5109718;27;20571;-61
2022/09/01 08:39:45;;;;;;;4.93;2.83;;;;;;;;;;5108797;28;20212;-61
2022/09/01 08:42:18;;;;;;;3.47;2.40;;;;;;;;;;5108285;28;20638;-61
2022/09/01 08:44:51;;;;;;;4.37;2.70;;;;;;;;;;5115698;27;20228;-62
2022/09/01 08:47:20;;;;;;;4.00;2.70;;;;;;;;;;5117971;28;20214;-62
2022/09/01 08:50:11;;;;;;;5.83;2.90;;;;;;;;;;5113816;28;20301;-62
2022/09/01 08:52:42;;;;;;;3.20;2.90;;;;;;;;;;5110844;28;20231;-63
2022/09/01 08:55:14;;;;;;;3.40;2.70;;;;;;;;;;5112210;27;20600;-63
2022/09/01 08:57:44;;;;;;;5.07;2.83;;;;;;;;;;5119933;27;20201;-63
2022/09/01 09:00:14;;;;;;;3.40;2.70;;;;;;;;;;5111354;28;20208;-62
2022/09/01 09:02:51;;;;;;;2.93;2.70;;;;;;;;;;5120232;28;20228;-62
2022/09/01 09:05:30;;;;;;;4.87;2.73;;;;;;;;;;5120720;27;20309;-62
2022/09/01 09:08:14;;;;;;;2.83;2.33;;;;;;;;;;5112426;28;20203;-62
2022/09/01 09:10:46;;;;;;;3.10;2.80;;;;;;;;;;5111107;28;20218;-62
2022/09/01 09:13:20;;;;;;;4.77;2.93;;;;;;;;;;5107218;28;20227;-62
2022/09/01 09:15:52;;;;;;;3.47;2.57;;;;;;;;;;5105039;28;20677;-62
2022/09/01 09:18:39;;;;;;;6.33;2.80;;;;;;;;;;5110665;28;20294;-62
2022/09/01 09:21:24;;;;;;;3.20;2.90;;;;;;;;;;5106585;28;20236;-62
2022/09/01 09:23:56;;;;;;;2.60;2.40;;;;;;;;;;5116396;28;20227;-61
2022/09/01 09:26:24;;;;;;;3.63;2.90;;;;;;;;;;5127906;27;20208;-62
2022/09/01 09:28:53;;;;;;;2.70;2.50;;;;;;;;;;5125966;27;20199;-61
2022/09/01 09:31:25;;;;;;;2.70;2.50;;;;;;;;;;5128748;27;20191;-60
2022/09/01 09:33:55;;;;;;;2.23;2.10;;;;;;;;;;5123113;27;20256;-60
2022/09/01 09:36:28;;;;;;;3.97;2.87;;;;;;;;;;5128968;27;20203;-60
2022/09/01 09:39:17;;;;;;;3.27;2.97;;;;;;;;;;5126666;27;20656;-60
2022/09/01 09:42:02;;;;;;;4.33;2.77;;;;;;;;;;5123178;27;20245;-60
2022/09/01 09:44:33;;;;;;;4.00;2.37;;;;;;;;;;5126835;27;20742;-60
2022/09/01 09:47:01;;;;;;;2.67;2.47;;;;;;;;;;5125095;27;20250;-60
2022/09/01 09:49:34;;;;;;;2.67;2.47;;;;;;;;;;5119393;28;20572;-60
2022/09/01 09:52:14;;;;;;;3.47;2.60;;;;;;;;;;5105752;28;20237;-60
2022/09/01 09:54:58;;;;;;;4.73;2.40;;;;;;;;;;5118562;28;20232;-60
2022/09/01 09:57:27;;;;;;;3.00;2.70;;;;;;;;;;5114403;28;20204;-59
2022/09/01 09:59:58;;;;;;;3.07;2.40;;;;;;;;;;5106110;28;20243;-60
2022/09/01 10:02:31;;;;;;;3.53;2.60;;;;;;;;;;5118068;28;20629;-60
2022/09/01 10:05:06;;;;;;;3.17;2.60;;;;;;;;;;5117922;28;20229;-59
2022/09/01 10:07:36;;;;;;;2.43;2.23;;;;;;;;;;5117304;28;20259;-58
2022/09/01 10:10:08;;;;;;;2.07;1.97;;;;;;;;;;5106265;27;20558;-58
2022/09/01 10:12:36;;;;;;;3.40;3.10;;;;;;;;;;5108745;28;20652;-59
2022/09/01 10:15:07;;;;;;;4.90;2.73;;;;;;;;;;5115041;27;20240;-60
2022/09/01 10:17:41;;;;;;;2.33;2.17;;;;;;;;;;5122802;27;20224;-61
2022/09/01 10:20:15;;;;;;;2.23;2.03;;;;;;;;;;5123864;27;20215;-60
2022/09/01 10:22:45;;;;;;;2.63;2.30;;;;;;;;;;5125718;27;20224;-60
2022/09/01 10:25:20;;;;;;;2.30;1.93;;;;;;;;;;5115909;28;20697;-60
2022/09/01 10:27:50;;;;;;;2.23;1.97;;;;;;;;;;5114071;28;20213;-61
2022/09/01 10:30:22;;;;;;;1.63;1.53;;;;;;;;;;5114042;27;20203;-59
2022/09/01 10:32:51;;;;;;;2.43;2.17;;;;;;;;;;5120987;27;20260;-61
2022/09/01 10:35:26;;;;;;;3.93;2.07;;;;;;;;;;5121860;27;20202;-61
2022/09/01 10:37:55;;;;;;;2.27;1.90;;;;;;;;;;5118389;28;20618;-61
2022/09/01 10:40:39;;;;;;;4.70;2.20;;;;;;;;;;5112247;28;20208;-61
2022/09/01 10:43:24;;;;;;;2.13;1.97;;;;;;;;;;5125393;27;20224;-60
2022/09/01 10:45:53;;;;;;;2.73;1.50;;;;;;;;;;5121374;27;20750;-58
2022/09/01 10:48:35;;;;;;;2.00;1.90;;;;;;;;;;5124841;27;20695;-59
2022/09/01 10:51:40;;;;;;;1.83;1.73;;;;;;;;;;5122493;27;20210;-60
2022/09/01 10:54:45;;;;;;;2.03;1.47;;;;;;;;;;5126521;27;20222;-60
2022/09/01 10:57:40;;;;;;;3.27;1.93;;;;;;;;;;5099068;27;20237;-60
2022/09/01 11:00:24;;;;;;;3.43;1.33;;;;;;;;;;5124507;27;20203;-60
2022/09/01 11:03:26;;;;;;;3.03;1.80;;;;;;;;;;5117131;27;20220;-60
2022/09/01 11:06:03;;;;;;;1.60;1.50;;;;;;;;;;5109520;28;20245;-60
2022/09/01 11:08:41;;;;;;;2.47;1.60;;;;;;;;;;5105915;28;20200;-60
2022/09/01 11:11:22;;;;;;;1.50;1.40;;;;;;;;;;5109334;27;20255;-60
2022/09/01 11:13:50;;;;;;;1.40;1.30;;;;;;;;;;5098354;28;20247;-60
2022/09/01 11:16:33;;;;;;;1.53;1.17;;;;;;;;;;5106219;28;20204;-60
2022/09/01 11:19:33;;;;;;;2.73;1.70;;;;;;;;;;5107736;28;20199;-60
2022/09/01 11:22:15;;;;;;;2.00;1.37;;;;;;;;;;5106588;28;20642;-60
2022/09/01 11:24:51;;;;;;;1.57;1.47;;;;;;;;;;5112034;28;20229;-60
2022/09/01 11:27:49;;;;;;;1.50;1.40;;;;;;;;;;5117104;28;20312;-60
2022/09/01 11:30:18;;;;;;;3.23;1.60;;;;;;;;;;5071293;28;20781;-59
2022/09/01 11:32:48;;;;;;;2.63;1.60;;;;;;;;;;5096984;28;20208;-60
2022/09/01 11:35:17;;;;;;;1.93;1.60;;;;;;;;;;5111286;28;20241;-59
2022/09/01 11:37:49;;;;;;;3.40;2.07;;;;;;;;;;5103986;28;20231;-60
2022/09/01 11:40:21;;;;;;;2.50;2.03;;;;;;;;;;5115258;28;20263;-59
2022/09/01 11:42:52;;;;;;;2.70;2.10;;;;;;;;;;5113785;28;20261;-59
2022/09/01 11:45:23;;;;;;;4.20;2.13;;;;;;;;;;5114696;28;20261;-59
2022/09/01 11:47:52;;;;;;;2.80;1.73;;;;;;;;;;5114127;28;20266;-59
2022/09/01 11:50:21;;;;;;;1.63;1.53;;;;;;;;;;5114893;28;20251;-59
2022/09/01 11:52:54;;;;;;;3.20;2.10;;;;;;;;;;5111018;28;20251;-59
2022/09/01 11:55:29;;;;;;;1.83;1.73;;;;;;;;;;5116119;28;20289;-60
2022/09/01 11:57:57;;;;;;;1.80;1.70;;;;;;;;;;5115503;28;20204;-60
2022/09/01 12:00:27;;;;;;;1.63;1.50;;;;;;;;;;5112035;28;20575;-60
2022/09/01 12:02:55;;;;;;;2.97;1.90;;;;;;;;;;5115556;28;20258;-60
2022/09/01 12:05:29;;;;;;;1603.37;916.97;;;;;;;;;;5117539;28;20668;-63
2022/09/01 12:08:02;;;;;;;1999.90;999.90;;;;;;;;;;5120032;28;20208;-63
2022/09/01 12:10:32;;;;;;;501.93;278.83;;;;;;;;;;5114081;28;20226;-63
2022/09/01 12:13:01;;;;;;;37.03;20.43;;;;;;;;;;5114522;28;20190;-64
2022/09/01 12:15:29;;;;;;;9.63;6.50;;;;;;;;;;5117429;28;20241;-63
2022/09/01 12:18:10;;;;;;;17.37;8.63;;;;;;;;;;5120945;27;20201;-63
2022/09/01 12:20:38;;;;;;;10.73;6.93;;;;;;;;;;5127832;27;20227;-64
2022/09/01 12:23:17;;;;;;;13.10;7.20;;;;;;;;;;5125854;27;20232;-63
2022/09/01 12:25:46;;;;;;;4.47;3.57;;;;;;;;;;5122650;27;20212;-63
2022/09/01 12:28:14;;;;;;;3.27;2.70;;;;;;;;;;5107216;27;20286;-64
2022/09/01 12:30:44;;;;;;;3.50;2.77;;;;;;;;;;5120941;28;20238;-64
2022/09/01 12:33:14;;;;;;;9.50;6.63;;;;;;;;;;5120833;28;20251;-63
2022/09/01 12:35:50;;;;;;;4.87;2.47;;;;;;;;;;5120623;28;20213;-65
2022/09/01 12:38:35;;;;;;;2.03;1.90;;;;;;;;;;5120800;28;20631;-63
2022/09/01 12:41:22;;;;;;;2.50;2.30;;;;;;;;;;5120499;28;20196;-65
2022/09/01 12:43:50;;;;;;;3.87;2.40;;;;;;;;;;5113024;28;20278;-62
2022/09/01 12:46:40;;;;;;;2.53;1.90;;;;;;;;;;5121066;28;20212;-63
2022/09/01 12:49:18;;;;;;;2.67;1.80;;;;;;;;;;5120847;28;20200;-64
2022/09/01 12:51:47;;;;;;;2.20;2.00;;;;;;;;;;5114933;27;20198;-63
2022/09/01 12:54:24;;;;;;;4.83;1.90;;;;;;;;;;5100233;28;20739;-64
2022/09/01 12:56:52;;;;;;;1.67;1.57;;;;;;;;;;5115549;27;20223;-63
2022/09/01 12:59:22;;;;;;;2.43;1.90;;;;;;;;;;5127904;27;20229;-63
2022/09/01 13:02:22;;;;;;;3.23;1.83;;;;;;;;;;5123125;27;20228;-63
2022/09/01 13:04:51;;;;;;;1.87;1.77;;;;;;;;;;5124703;27;20300;-64
2022/09/01 13:07:19;;;;;;;1.90;1.70;;;;;;;;;;5129560;27;20202;-64
2022/09/01 13:09:48;;;;;;;3.57;2.00;;;;;;;;;;5129199;27;20206;-64
2022/09/01 13:12:17;;;;;;;2.07;1.97;;;;;;;;;;5126789;27;20567;-64
2022/09/01 13:14:46;;;;;;;1.60;1.50;;;;;;;;;;5126857;27;20214;-64
2022/09/01 13:17:14;;;;;;;2.57;1.67;;;;;;;;;;5123327;27;20212;-64
2022/09/01 13:19:42;;;;;;;2.47;1.50;;;;;;;;;;5123365;27;20201;-64
2022/09/01 13:22:10;;;;;;;3.53;1.90;;;;;;;;;;5123710;27;20210;-64
2022/09/01 13:24:39;;;;;;;3.07;1.90;;;;;;;;;;5129896;27;20271;-64
2022/09/01 13:27:09;;;;;;;1.83;1.73;;;;;;;;;;5126569;27;20239;-63
2022/09/01 13:29:53;;;;;;;2.13;1.70;;;;;;;;;;5108332;28;20205;-63
2022/09/01 13:32:22;;;;;;;2.10;1.90;;;;;;;;;;5117995;28;20210;-63
2022/09/01 13:34:51;;;;;;;2.23;1.67;;;;;;;;;;5111492;28;20295;-63
2022/09/01 13:37:20;;;;;;;1.67;1.57;;;;;;;;;;5126729;27;20827;-63
2022/09/01 13:39:48;;;;;;;1.47;1.33;;;;;;;;;;5130147;27;20229;-63
2022/09/01 13:42:17;;;;;;;2.00;1.80;;;;;;;;;;5121228;27;20201;-63
2022/09/01 13:44:46;;;;;;;2.40;2.20;;;;;;;;;;5122057;27;20239;-64
2022/09/01 13:47:17;;;;;;;2.83;1.85;;;;;;;;;;5127408;27;20690;-63
2022/09/01 13:50:01;;;;;;;2.05;1.55;;;;;;;;;;5127039;27;20206;-64
2022/09/01 13:52:36;;;;;;;2.22;1.60;;;;;;;;;;5126264;27;20279;-63
2022/09/01 13:55:04;;;;;;;1.80;1.70;;;;;;;;;;5119388;28;20225;-63
2022/09/01 13:57:34;;;;;;;3.53;2.05;;;;;;;;;;5127068;27;20196;-64
2022/09/01 14:00:04;;;;;;;9.35;2.03;;;;;;;;;;5129812;27;20198;-63
2022/09/01 14:02:32;;;;;;;5.78;1.98;;;;;;;;;;5128536;27;20598;-63
2022/09/01 14:05:00;;;;;;;5.18;2.00;;;;;;;;;;5117649;27;20291;-63
2022/09/01 14:07:28;;;;;;;2.75;1.80;;;;;;;;;;5128429;27;20203;-63
2022/09/01 14:09:56;;;;;;;1.85;1.55;;;;;;;;;;5122119;27;20235;-63
2022/09/01 14:12:24;;;;;;;1.52;1.42;;;;;;;;;;5125479;27;20229;-63
2022/09/01 14:14:54;;;;;;;2.00;1.70;;;;;;;;;;5126536;27;20283;-63
2022/09/01 14:17:43;;;;;;;3.10;1.65;;;;;;;;;;5125542;27;20195;-64
2022/09/01 14:20:12;;;;;;;2.05;1.38;;;;;;;;;;5111231;27;20206;-64
2022/09/01 14:22:40;;;;;;;1.73;1.60;;;;;;;;;;5113479;28;20211;-61
2022/09/01 14:25:09;;;;;;;234.05;19.70;;;;;;;;;;5107223;28;20609;-67
2022/09/01 14:27:38;;;;;;;1.90;1.52;;;;;;;;;;5104562;28;20326;-65
2022/09/01 14:30:08;;;;;;;2.50;1.60;;;;;;;;;;5118521;28;20208;-66
2022/09/01 14:32:37;;;;;;;2.33;1.65;;;;;;;;;;5113989;28;20255;-65
2022/09/01 14:35:07;;;;;;;6.18;1.75;;;;;;;;;;5122297;27;20256;-65
2022/09/01 14:37:35;;;;;;;5.05;1.70;;;;;;;;;;5106660;28;20653;-65
2022/09/01 14:40:03;;;;;;;2.28;1.60;;;;;;;;;;5126089;27;20230;-60
2022/09/01 14:42:31;;;;;;;1.63;1.52;;;;;;;;;;5124593;27;20196;-59
2022/09/01 14:45:00;;;;;;;1.55;1.45;;;;;;;;;;5124047;27;20223;-59
2022/09/01 14:47:30;;;;;;;1.40;1.30;;;;;;;;;;5114389;27;20211;-59
2022/09/01 14:49:59;;;;;;;4.28;1.80;;;;;;;;;;5115010;28;20224;-59
2022/09/01 14:52:27;;;;;;;2.20;1.60;;;;;;;;;;5106021;28;20245;-59
2022/09/01 14:54:56;;;;;;;1.60;1.50;;;;;;;;;;5097986;28;20230;-59
2022/09/01 14:57:24;;;;;;;1.38;1.27;;;;;;;;;;5097425;28;20202;-61
2022/09/01 15:00:04;;;;;;;3.40;1.73;;;;;;;;;;5097943;28;20253;-59
2022/09/01 15:02:34;;;;;;;2.00;1.77;;;;;;;;;;5097547;28;20242;-59
2022/09/01 15:05:03;;;;;;;1.77;1.40;;;;;;;;;;5097579;28;20276;-60
2022/09/01 15:07:31;;;;;;;1.73;1.63;;;;;;;;;;5095818;28;20209;-59
2022/09/01 15:09:59;;;;;;;4.07;1.50;;;;;;;;;;5110608;27;20198;-59
2022/09/01 15:12:30;;;;;;;1.77;1.60;;;;;;;;;;5126394;27;20198;-60
2022/09/01 15:14:58;;;;;;;4.18;2.05;;;;;;;;;;5115440;28;20745;-60
2022/09/01 15:17:27;;;;;;;1.98;1.50;;;;;;;;;;5106397;28;20229;-60